sensor_id;sensor_type;location;lat;lon;timestamp;P1;durP1;ratioP1;P2;durP2;ratioP2
58242;SDS011;50118;53.232;8.252;2023-10-13T00:01:33;49.97;;;26.17;;
58242;SDS011;50118;53.232;8.252;2023-10-13T00:03:59;49.45;;;25.85;;
58242;SDS011;50118;53.232;8.252;2023-10-13T00:06:27;53.75;;;27.55;;
58242;SDS011;50118;53.232;8.252;2023-10-13T00:08:52;50.17;;;26.45;;
58242;SDS011;50118;53.232;8.252;2023-10-13T00:11:17;55.45;;;26.45;;
58242;SDS011;50118;53.232;8.252;2023-10-13T00:13:44;53.25;;;27.35;;
58242;SDS011;50118;53.232;8.252;2023-10-13T00:16:19;56.15;;;28.23;;
58242;SDS011;50118;53.232;8.252;2023-10-13T00:18:56;56.10;;;27.23;;
58242;SDS011;50118;53.232;8.252;2023-10-13T00:21:23;56.83;;;27.20;;
58242;SDS011;50118;53.232;8.252;2023-10-13T00:23:59;63.72;;;29.17;;
58242;SDS011;50118;53.232;8.252;2023-10-13T00:26:28;63.63;;;29.55;;
58242;SDS011;50118;53.232;8.252;2023-10-13T00:28:55;55.05;;;27.65;;
58242;SDS011;50118;53.232;8.252;2023-10-13T00:31:44;72.47;;;31.02;;
58242;SDS011;50118;53.232;8.252;2023-10-13T00:34:13;65.80;;;30.40;;
58242;SDS011;50118;53.232;8.252;2023-10-13T00:36:50;66.22;;;29.67;;
58242;SDS011;50118;53.232;8.252;2023-10-13T00:39:35;69.95;;;29.42;;
58242;SDS011;50118;53.232;8.252;2023-10-13T00:42:05;71.05;;;30.63;;
58242;SDS011;50118;53.232;8.252;2023-10-13T00:44:42;65.57;;;29.67;;
58242;SDS011;50118;53.232;8.252;2023-10-13T00:47:13;73.30;;;32.28;;
58242;SDS011;50118;53.232;8.252;2023-10-13T00:49:42;68.05;;;28.98;;
58242;SDS011;50118;53.232;8.252;2023-10-13T00:52:12;68.70;;;30.00;;
58242;SDS011;50118;53.232;8.252;2023-10-13T00:54:40;71.30;;;30.60;;
58242;SDS011;50118;53.232;8.252;2023-10-13T00:57:12;63.70;;;28.52;;
58242;SDS011;50118;53.232;8.252;2023-10-13T00:59:57;67.55;;;30.08;;
58242;SDS011;50118;53.232;8.252;2023-10-13T01:02:24;66.82;;;30.85;;
58242;SDS011;50118;53.232;8.252;2023-10-13T01:05:05;69.05;;;30.27;;
58242;SDS011;50118;53.232;8.252;2023-10-13T01:07:37;58.03;;;26.95;;
58242;SDS011;50118;53.232;8.252;2023-10-13T01:10:03;62.10;;;29.23;;
58242;SDS011;50118;53.232;8.252;2023-10-13T01:12:52;61.15;;;28.35;;
58242;SDS011;50118;53.232;8.252;2023-10-13T01:15:21;63.28;;;30.15;;
58242;SDS011;50118;53.232;8.252;2023-10-13T01:17:47;66.53;;;30.08;;
58242;SDS011;50118;53.232;8.252;2023-10-13T01:20:16;56.30;;;26.30;;
58242;SDS011;50118;53.232;8.252;2023-10-13T01:22:51;64.50;;;28.48;;
58242;SDS011;50118;53.232;8.252;2023-10-13T01:28:05;62.83;;;28.60;;
58242;SDS011;50118;53.232;8.252;2023-10-13T01:30:51;67.15;;;30.35;;
58242;SDS011;50118;53.232;8.252;2023-10-13T01:33:18;58.53;;;28.67;;
58242;SDS011;50118;53.232;8.252;2023-10-13T01:35:52;64.22;;;30.23;;
58242;SDS011;50118;53.232;8.252;2023-10-13T01:38:20;64.50;;;27.98;;
58242;SDS011;50118;53.232;8.252;2023-10-13T01:40:46;63.47;;;28.77;;
58242;SDS011;50118;53.232;8.252;2023-10-13T01:43:16;59.47;;;27.60;;
58242;SDS011;50118;53.232;8.252;2023-10-13T01:45:42;59.00;;;27.98;;
58242;SDS011;50118;53.232;8.252;2023-10-13T01:48:18;59.00;;;28.90;;
58242;SDS011;50118;53.232;8.252;2023-10-13T01:50:46;55.83;;;27.75;;
58242;SDS011;50118;53.232;8.252;2023-10-13T01:53:24;59.65;;;28.48;;
58242;SDS011;50118;53.232;8.252;2023-10-13T01:55:53;65.13;;;30.02;;
58242;SDS011;50118;53.232;8.252;2023-10-13T01:58:22;60.65;;;28.92;;
58242;SDS011;50118;53.232;8.252;2023-10-13T02:00:51;58.92;;;28.70;;
58242;SDS011;50118;53.232;8.252;2023-10-13T02:03:17;61.65;;;29.88;;
58242;SDS011;50118;53.232;8.252;2023-10-13T02:05:43;59.83;;;28.50;;
58242;SDS011;50118;53.232;8.252;2023-10-13T02:08:15;63.70;;;28.83;;
58242;SDS011;50118;53.232;8.252;2023-10-13T02:10:48;60.55;;;30.23;;
58242;SDS011;50118;53.232;8.252;2023-10-13T02:13:15;70.57;;;29.63;;
58242;SDS011;50118;53.232;8.252;2023-10-13T02:15:42;60.97;;;29.73;;
58242;SDS011;50118;53.232;8.252;2023-10-13T02:18:28;59.22;;;28.25;;
58242;SDS011;50118;53.232;8.252;2023-10-13T02:21:08;60.78;;;30.45;;
58242;SDS011;50118;53.232;8.252;2023-10-13T02:23:39;55.30;;;29.02;;
58242;SDS011;50118;53.232;8.252;2023-10-13T02:26:25;58.20;;;28.45;;
58242;SDS011;50118;53.232;8.252;2023-10-13T02:31:32;66.55;;;31.58;;
58242;SDS011;50118;53.232;8.252;2023-10-13T02:34:03;72.05;;;30.75;;
58242;SDS011;50118;53.232;8.252;2023-10-13T02:36:34;62.10;;;30.35;;
58242;SDS011;50118;53.232;8.252;2023-10-13T02:39:12;62.50;;;30.60;;
58242;SDS011;50118;53.232;8.252;2023-10-13T02:41:39;58.22;;;27.80;;
58242;SDS011;50118;53.232;8.252;2023-10-13T02:44:06;64.88;;;30.83;;
58242;SDS011;50118;53.232;8.252;2023-10-13T02:46:33;58.03;;;28.05;;
58242;SDS011;50118;53.232;8.252;2023-10-13T02:49:02;57.92;;;29.45;;
58242;SDS011;50118;53.232;8.252;2023-10-13T02:51:35;59.10;;;29.25;;
58242;SDS011;50118;53.232;8.252;2023-10-13T02:54:02;56.67;;;29.48;;
58242;SDS011;50118;53.232;8.252;2023-10-13T02:56:38;65.35;;;29.35;;
58242;SDS011;50118;53.232;8.252;2023-10-13T02:59:22;62.90;;;29.38;;
58242;SDS011;50118;53.232;8.252;2023-10-13T03:01:59;60.40;;;29.20;;
58242;SDS011;50118;53.232;8.252;2023-10-13T03:04:31;62.88;;;30.80;;
58242;SDS011;50118;53.232;8.252;2023-10-13T03:06:57;63.53;;;30.50;;
58242;SDS011;50118;53.232;8.252;2023-10-13T03:09:26;58.30;;;27.33;;
58242;SDS011;50118;53.232;8.252;2023-10-13T03:11:52;59.75;;;29.05;;
58242;SDS011;50118;53.232;8.252;2023-10-13T03:14:22;67.55;;;30.90;;
58242;SDS011;50118;53.232;8.252;2023-10-13T03:17:00;58.47;;;27.55;;
58242;SDS011;50118;53.232;8.252;2023-10-13T03:19:28;57.92;;;29.48;;
58242;SDS011;50118;53.232;8.252;2023-10-13T03:21:58;58.30;;;27.75;;
58242;SDS011;50118;53.232;8.252;2023-10-13T03:24:56;59.13;;;27.95;;
58242;SDS011;50118;53.232;8.252;2023-10-13T03:27:54;58.72;;;29.65;;
58242;SDS011;50118;53.232;8.252;2023-10-13T03:30:20;53.67;;;27.27;;
58242;SDS011;50118;53.232;8.252;2023-10-13T03:32:46;60.38;;;27.48;;
58242;SDS011;50118;53.232;8.252;2023-10-13T03:35:19;57.38;;;28.20;;
58242;SDS011;50118;53.232;8.252;2023-10-13T03:37:56;55.50;;;28.55;;
58242;SDS011;50118;53.232;8.252;2023-10-13T03:40:22;57.00;;;29.33;;
58242;SDS011;50118;53.232;8.252;2023-10-13T03:42:48;57.17;;;28.92;;
58242;SDS011;50118;53.232;8.252;2023-10-13T03:45:39;57.03;;;28.83;;
58242;SDS011;50118;53.232;8.252;2023-10-13T03:48:13;60.13;;;28.10;;
58242;SDS011;50118;53.232;8.252;2023-10-13T03:53:53;54.83;;;27.80;;
58242;SDS011;50118;53.232;8.252;2023-10-13T03:56:25;55.58;;;28.98;;
58242;SDS011;50118;53.232;8.252;2023-10-13T03:58:54;52.63;;;26.50;;
58242;SDS011;50118;53.232;8.252;2023-10-13T04:01:25;51.28;;;26.08;;
58242;SDS011;50118;53.232;8.252;2023-10-13T04:04:00;53.67;;;25.77;;
58242;SDS011;50118;53.232;8.252;2023-10-13T04:09:19;50.60;;;25.52;;
58242;SDS011;50118;53.232;8.252;2023-10-13T04:14:27;51.63;;;26.95;;
58242;SDS011;50118;53.232;8.252;2023-10-13T04:17:15;45.75;;;24.50;;
58242;SDS011;50118;53.232;8.252;2023-10-13T04:20:01;42.20;;;23.92;;
58242;SDS011;50118;53.232;8.252;2023-10-13T04:25:14;41.80;;;21.70;;
58242;SDS011;50118;53.232;8.252;2023-10-13T04:28:00;44.97;;;23.77;;
58242;SDS011;50118;53.232;8.252;2023-10-13T04:30:48;44.67;;;23.52;;
58242;SDS011;50118;53.232;8.252;2023-10-13T04:33:25;43.25;;;22.50;;
58242;SDS011;50118;53.232;8.252;2023-10-13T04:36:07;41.88;;;21.27;;
58242;SDS011;50118;53.232;8.252;2023-10-13T04:38:55;40.35;;;22.05;;
58242;SDS011;50118;53.232;8.252;2023-10-13T04:41:43;47.42;;;23.15;;
58242;SDS011;50118;53.232;8.252;2023-10-13T04:44:09;40.90;;;23.10;;
58242;SDS011;50118;53.232;8.252;2023-10-13T04:46:55;44.55;;;24.20;;
58242;SDS011;50118;53.232;8.252;2023-10-13T04:49:24;41.28;;;21.95;;
58242;SDS011;50118;53.232;8.252;2023-10-13T04:52:08;45.53;;;22.77;;
58242;SDS011;50118;53.232;8.252;2023-10-13T04:57:24;41.42;;;22.60;;
58242;SDS011;50118;53.232;8.252;2023-10-13T05:00:28;43.75;;;24.08;;
58242;SDS011;50118;53.232;8.252;2023-10-13T05:03:12;45.85;;;24.20;;
58242;SDS011;50118;53.232;8.252;2023-10-13T05:05:56;44.25;;;23.65;;
58242;SDS011;50118;53.232;8.252;2023-10-13T05:08:57;41.13;;;21.70;;
58242;SDS011;50118;53.232;8.252;2023-10-13T05:11:41;43.58;;;22.20;;
58242;SDS011;50118;53.232;8.252;2023-10-13T05:14:25;44.33;;;24.00;;
58242;SDS011;50118;53.232;8.252;2023-10-13T05:17:09;45.25;;;23.55;;
58242;SDS011;50118;53.232;8.252;2023-10-13T05:19:55;44.85;;;23.08;;
58242;SDS011;50118;53.232;8.252;2023-10-13T05:22:40;41.17;;;23.17;;
58242;SDS011;50118;53.232;8.252;2023-10-13T05:25:27;40.53;;;21.52;;
58242;SDS011;50118;53.232;8.252;2023-10-13T05:31:19;41.63;;;22.83;;
58242;SDS011;50118;53.232;8.252;2023-10-13T05:34:14;41.08;;;22.13;;
58242;SDS011;50118;53.232;8.252;2023-10-13T05:37:01;38.58;;;22.67;;
58242;SDS011;50118;53.232;8.252;2023-10-13T05:39:45;41.88;;;22.95;;
58242;SDS011;50118;53.232;8.252;2023-10-13T05:42:34;37.13;;;20.90;;
58242;SDS011;50118;53.232;8.252;2023-10-13T05:45:18;40.03;;;21.25;;
58242;SDS011;50118;53.232;8.252;2023-10-13T05:48:05;38.70;;;22.08;;
58242;SDS011;50118;53.232;8.252;2023-10-13T05:50:42;36.75;;;19.98;;
58242;SDS011;50118;53.232;8.252;2023-10-13T05:53:27;42.25;;;22.08;;
58242;SDS011;50118;53.232;8.252;2023-10-13T05:56:11;38.85;;;20.40;;
58242;SDS011;50118;53.232;8.252;2023-10-13T05:59:04;39.90;;;21.35;;
58242;SDS011;50118;53.232;8.252;2023-10-13T06:01:58;35.03;;;19.52;;
58242;SDS011;50118;53.232;8.252;2023-10-13T06:08:10;37.13;;;20.95;;
58242;SDS011;50118;53.232;8.252;2023-10-13T06:13:56;35.10;;;19.90;;
58242;SDS011;50118;53.232;8.252;2023-10-13T06:16:40;34.80;;;19.77;;
58242;SDS011;50118;53.232;8.252;2023-10-13T06:19:24;34.78;;;19.80;;
58242;SDS011;50118;53.232;8.252;2023-10-13T06:25:30;34.58;;;20.63;;
58242;SDS011;50118;53.232;8.252;2023-10-13T06:28:15;30.85;;;18.40;;
58242;SDS011;50118;53.232;8.252;2023-10-13T06:30:59;31.55;;;19.27;;
58242;SDS011;50118;53.232;8.252;2023-10-13T06:33:31;30.23;;;17.85;;
58242;SDS011;50118;53.232;8.252;2023-10-13T06:36:10;30.70;;;18.75;;
58242;SDS011;50118;53.232;8.252;2023-10-13T06:38:36;30.88;;;16.73;;
58242;SDS011;50118;53.232;8.252;2023-10-13T06:41:05;27.40;;;16.05;;
58242;SDS011;50118;53.232;8.252;2023-10-13T06:43:32;28.98;;;16.50;;
58242;SDS011;50118;53.232;8.252;2023-10-13T06:46:04;25.45;;;16.15;;
58242;SDS011;50118;53.232;8.252;2023-10-13T06:48:48;22.83;;;14.32;;
58242;SDS011;50118;53.232;8.252;2023-10-13T06:51:34;23.42;;;14.45;;
58242;SDS011;50118;53.232;8.252;2023-10-13T06:54:11;24.75;;;14.98;;
58242;SDS011;50118;53.232;8.252;2023-10-13T06:59:39;21.95;;;14.27;;
58242;SDS011;50118;53.232;8.252;2023-10-13T07:02:48;21.25;;;13.32;;
58242;SDS011;50118;53.232;8.252;2023-10-13T07:05:18;20.90;;;14.13;;
58242;SDS011;50118;53.232;8.252;2023-10-13T07:07:44;18.40;;;12.23;;
58242;SDS011;50118;53.232;8.252;2023-10-13T07:10:11;20.63;;;13.30;;
58242;SDS011;50118;53.232;8.252;2023-10-13T07:12:38;21.63;;;13.35;;
58242;SDS011;50118;53.232;8.252;2023-10-13T07:15:08;21.73;;;13.40;;
58242;SDS011;50118;53.232;8.252;2023-10-13T07:17:47;20.27;;;12.52;;
58242;SDS011;50118;53.232;8.252;2023-10-13T07:20:20;19.92;;;12.32;;
58242;SDS011;50118;53.232;8.252;2023-10-13T07:22:58;19.58;;;11.98;;
58242;SDS011;50118;53.232;8.252;2023-10-13T07:25:31;17.63;;;12.10;;
58242;SDS011;50118;53.232;8.252;2023-10-13T07:28:05;17.50;;;12.63;;
58242;SDS011;50118;53.232;8.252;2023-10-13T07:30:34;16.67;;;11.50;;
58242;SDS011;50118;53.232;8.252;2023-10-13T07:33:22;18.30;;;11.15;;
58242;SDS011;50118;53.232;8.252;2023-10-13T07:35:48;18.00;;;11.48;;
58242;SDS011;50118;53.232;8.252;2023-10-13T07:38:46;17.40;;;10.70;;
58242;SDS011;50118;53.232;8.252;2023-10-13T07:41:25;16.42;;;11.50;;
58242;SDS011;50118;53.232;8.252;2023-10-13T07:43:55;17.05;;;10.80;;
58242;SDS011;50118;53.232;8.252;2023-10-13T07:46:22;16.95;;;11.57;;
58242;SDS011;50118;53.232;8.252;2023-10-13T07:48:55;18.20;;;11.65;;
58242;SDS011;50118;53.232;8.252;2023-10-13T07:51:39;15.98;;;11.07;;
58242;SDS011;50118;53.232;8.252;2023-10-13T07:54:14;18.60;;;11.52;;
58242;SDS011;50118;53.232;8.252;2023-10-13T07:56:47;15.48;;;10.68;;
58242;SDS011;50118;53.232;8.252;2023-10-13T07:59:13;16.52;;;11.57;;
58242;SDS011;50118;53.232;8.252;2023-10-13T08:01:41;16.48;;;11.25;;
58242;SDS011;50118;53.232;8.252;2023-10-13T08:04:10;15.05;;;11.02;;
58242;SDS011;50118;53.232;8.252;2023-10-13T08:06:36;16.40;;;11.43;;
58242;SDS011;50118;53.232;8.252;2023-10-13T08:09:05;15.23;;;10.50;;
58242;SDS011;50118;53.232;8.252;2023-10-13T08:11:35;16.35;;;10.93;;
58242;SDS011;50118;53.232;8.252;2023-10-13T08:14:03;15.40;;;10.13;;
58242;SDS011;50118;53.232;8.252;2023-10-13T08:16:37;15.02;;;10.25;;
58242;SDS011;50118;53.232;8.252;2023-10-13T08:19:14;16.17;;;9.85;;
58242;SDS011;50118;53.232;8.252;2023-10-13T08:21:41;14.32;;;9.65;;
58242;SDS011;50118;53.232;8.252;2023-10-13T08:24:24;14.18;;;8.38;;
58242;SDS011;50118;53.232;8.252;2023-10-13T08:27:14;12.57;;;8.05;;
58242;SDS011;50118;53.232;8.252;2023-10-13T08:30:00;9.95;;;6.85;;
58242;SDS011;50118;53.232;8.252;2023-10-13T08:32:29;9.88;;;5.85;;
58242;SDS011;50118;53.232;8.252;2023-10-13T08:34:56;12.68;;;6.10;;
58242;SDS011;50118;53.232;8.252;2023-10-13T08:37:22;11.80;;;6.10;;
58242;SDS011;50118;53.232;8.252;2023-10-13T08:39:48;10.18;;;5.80;;
58242;SDS011;50118;53.232;8.252;2023-10-13T08:42:41;10.45;;;5.88;;
58242;SDS011;50118;53.232;8.252;2023-10-13T08:45:13;9.57;;;5.47;;
58242;SDS011;50118;53.232;8.252;2023-10-13T08:47:59;10.32;;;5.50;;
58242;SDS011;50118;53.232;8.252;2023-10-13T08:50:42;12.00;;;5.47;;
58242;SDS011;50118;53.232;8.252;2023-10-13T08:53:18;9.65;;;5.03;;
58242;SDS011;50118;53.232;8.252;2023-10-13T08:55:56;10.43;;;5.40;;
58242;SDS011;50118;53.232;8.252;2023-10-13T08:58:28;10.75;;;5.22;;
58242;SDS011;50118;53.232;8.252;2023-10-13T09:01:12;14.38;;;5.97;;
58242;SDS011;50118;53.232;8.252;2023-10-13T09:03:41;12.88;;;6.10;;
58242;SDS011;50118;53.232;8.252;2023-10-13T09:06:14;11.85;;;5.75;;
58242;SDS011;50118;53.232;8.252;2023-10-13T09:08:45;11.85;;;5.60;;
58242;SDS011;50118;53.232;8.252;2023-10-13T09:11:31;10.63;;;5.57;;
58242;SDS011;50118;53.232;8.252;2023-10-13T09:14:13;12.60;;;5.50;;
58242;SDS011;50118;53.232;8.252;2023-10-13T09:17:05;11.82;;;6.60;;
58242;SDS011;50118;53.232;8.252;2023-10-13T09:19:47;13.30;;;6.82;;
58242;SDS011;50118;53.232;8.252;2023-10-13T09:25:08;12.80;;;6.22;;
58242;SDS011;50118;53.232;8.252;2023-10-13T09:27:39;13.48;;;6.65;;
58242;SDS011;50118;53.232;8.252;2023-10-13T09:30:05;12.38;;;6.85;;
58242;SDS011;50118;53.232;8.252;2023-10-13T09:33:02;11.13;;;6.20;;
58242;SDS011;50118;53.232;8.252;2023-10-13T09:35:40;14.05;;;6.57;;
58242;SDS011;50118;53.232;8.252;2023-10-13T09:38:14;15.50;;;6.80;;
58242;SDS011;50118;53.232;8.252;2023-10-13T09:40:40;12.43;;;6.43;;
58242;SDS011;50118;53.232;8.252;2023-10-13T09:43:15;12.55;;;6.57;;
58242;SDS011;50118;53.232;8.252;2023-10-13T09:45:48;13.75;;;6.00;;
58242;SDS011;50118;53.232;8.252;2023-10-13T09:48:33;9.73;;;5.63;;
58242;SDS011;50118;53.232;8.252;2023-10-13T09:51:02;12.95;;;6.60;;
58242;SDS011;50118;53.232;8.252;2023-10-13T09:53:35;10.73;;;6.15;;
58242;SDS011;50118;53.232;8.252;2023-10-13T09:56:32;11.10;;;6.32;;
58242;SDS011;50118;53.232;8.252;2023-10-13T09:59:17;14.30;;;6.30;;
58242;SDS011;50118;53.232;8.252;2023-10-13T10:01:48;10.13;;;5.88;;
58242;SDS011;50118;53.232;8.252;2023-10-13T10:04:17;12.35;;;6.10;;
58242;SDS011;50118;53.232;8.252;2023-10-13T10:06:51;12.02;;;5.93;;
58242;SDS011;50118;53.232;8.252;2023-10-13T10:09:26;9.63;;;5.82;;
58242;SDS011;50118;53.232;8.252;2023-10-13T10:17:45;9.80;;;5.82;;
58242;SDS011;50118;53.232;8.252;2023-10-13T10:20:12;11.00;;;5.72;;
58242;SDS011;50118;53.232;8.252;2023-10-13T10:22:55;11.02;;;6.28;;
58242;SDS011;50118;53.232;8.252;2023-10-13T10:25:28;11.60;;;6.55;;
58242;SDS011;50118;53.232;8.252;2023-10-13T10:28:00;13.02;;;6.30;;
58242;SDS011;50118;53.232;8.252;2023-10-13T10:30:35;11.02;;;6.13;;
58242;SDS011;50118;53.232;8.252;2023-10-13T10:33:07;15.27;;;7.63;;
58242;SDS011;50118;53.232;8.252;2023-10-13T10:35:44;10.77;;;6.60;;
58242;SDS011;50118;53.232;8.252;2023-10-13T10:40:59;11.63;;;6.97;;
58242;SDS011;50118;53.232;8.252;2023-10-13T10:43:26;12.68;;;7.18;;
58242;SDS011;50118;53.232;8.252;2023-10-13T10:45:54;11.40;;;6.90;;
58242;SDS011;50118;53.232;8.252;2023-10-13T10:48:31;10.80;;;6.57;;
58242;SDS011;50118;53.232;8.252;2023-10-13T10:50:59;13.43;;;6.45;;
58242;SDS011;50118;53.232;8.252;2023-10-13T10:53:33;11.45;;;6.28;;
58242;SDS011;50118;53.232;8.252;2023-10-13T10:56:06;12.50;;;6.05;;
58242;SDS011;50118;53.232;8.252;2023-10-13T10:58:59;12.93;;;6.18;;
58242;SDS011;50118;53.232;8.252;2023-10-13T11:01:25;9.25;;;5.82;;
58242;SDS011;50118;53.232;8.252;2023-10-13T11:04:12;7.65;;;5.20;;
58242;SDS011;50118;53.232;8.252;2023-10-13T11:09:23;12.52;;;5.30;;
58242;SDS011;50118;53.232;8.252;2023-10-13T11:11:56;11.75;;;5.63;;
58242;SDS011;50118;53.232;8.252;2023-10-13T11:14:40;11.13;;;5.97;;
58242;SDS011;50118;53.232;8.252;2023-10-13T11:17:07;11.18;;;5.50;;
58242;SDS011;50118;53.232;8.252;2023-10-13T11:19:45;14.13;;;5.25;;
58242;SDS011;50118;53.232;8.252;2023-10-13T11:22:17;12.05;;;5.35;;
58242;SDS011;50118;53.232;8.252;2023-10-13T11:25:07;10.05;;;5.43;;
58242;SDS011;50118;53.232;8.252;2023-10-13T11:27:39;12.75;;;5.57;;
58242;SDS011;50118;53.232;8.252;2023-10-13T11:30:15;11.32;;;5.80;;
58242;SDS011;50118;53.232;8.252;2023-10-13T11:32:45;12.32;;;6.30;;
58242;SDS011;50118;53.232;8.252;2023-10-13T11:35:11;12.25;;;5.07;;
58242;SDS011;50118;53.232;8.252;2023-10-13T11:37:47;10.77;;;5.07;;
58242;SDS011;50118;53.232;8.252;2023-10-13T11:40:37;11.13;;;4.95;;
58242;SDS011;50118;53.232;8.252;2023-10-13T11:43:09;12.30;;;5.35;;
58242;SDS011;50118;53.232;8.252;2023-10-13T11:45:47;8.65;;;4.20;;
58242;SDS011;50118;53.232;8.252;2023-10-13T11:48:42;12.63;;;6.07;;
58242;SDS011;50118;53.232;8.252;2023-10-13T11:51:09;12.52;;;5.20;;
58242;SDS011;50118;53.232;8.252;2023-10-13T11:53:42;14.35;;;5.85;;
58242;SDS011;50118;53.232;8.252;2023-10-13T11:56:17;11.45;;;5.70;;
58242;SDS011;50118;53.232;8.252;2023-10-13T11:58:46;13.10;;;6.85;;
58242;SDS011;50118;53.232;8.252;2023-10-13T12:01:11;14.73;;;6.50;;
58242;SDS011;50118;53.232;8.252;2023-10-13T12:03:40;12.00;;;5.95;;
58242;SDS011;50118;53.232;8.252;2023-10-13T12:06:25;12.70;;;4.82;;
58242;SDS011;50118;53.232;8.252;2023-10-13T12:09:00;13.85;;;5.05;;
58242;SDS011;50118;53.232;8.252;2023-10-13T12:11:43;13.73;;;6.38;;
58242;SDS011;50118;53.232;8.252;2023-10-13T12:14:13;14.05;;;6.47;;
58242;SDS011;50118;53.232;8.252;2023-10-13T12:17:03;12.07;;;5.25;;
58242;SDS011;50118;53.232;8.252;2023-10-13T12:19:30;11.70;;;5.85;;
58242;SDS011;50118;53.232;8.252;2023-10-13T12:21:56;12.55;;;5.70;;
58242;SDS011;50118;53.232;8.252;2023-10-13T12:24:27;14.55;;;5.65;;
58242;SDS011;50118;53.232;8.252;2023-10-13T12:27:02;10.48;;;4.95;;
58242;SDS011;50118;53.232;8.252;2023-10-13T12:29:43;14.93;;;5.63;;
58242;SDS011;50118;53.232;8.252;2023-10-13T12:32:12;13.05;;;5.35;;
58242;SDS011;50118;53.232;8.252;2023-10-13T12:34:39;11.05;;;4.90;;
58242;SDS011;50118;53.232;8.252;2023-10-13T12:37:24;11.82;;;4.90;;
58242;SDS011;50118;53.232;8.252;2023-10-13T12:40:09;11.88;;;5.28;;
58242;SDS011;50118;53.232;8.252;2023-10-13T12:42:57;12.43;;;5.70;;
58242;SDS011;50118;53.232;8.252;2023-10-13T12:45:44;13.77;;;5.10;;
58242;SDS011;50118;53.232;8.252;2023-10-13T12:48:32;11.20;;;4.90;;
58242;SDS011;50118;53.232;8.252;2023-10-13T12:51:16;11.32;;;5.05;;
58242;SDS011;50118;53.232;8.252;2023-10-13T12:53:52;11.68;;;4.97;;
58242;SDS011;50118;53.232;8.252;2023-10-13T12:56:19;11.65;;;5.10;;
58242;SDS011;50118;53.232;8.252;2023-10-13T12:58:52;12.32;;;5.03;;
58242;SDS011;50118;53.232;8.252;2023-10-13T13:01:19;12.50;;;4.93;;
58242;SDS011;50118;53.232;8.252;2023-10-13T13:03:48;9.68;;;4.88;;
58242;SDS011;50118;53.232;8.252;2023-10-13T13:06:22;15.02;;;5.05;;
58242;SDS011;50118;53.232;8.252;2023-10-13T13:08:55;11.20;;;5.00;;
58242;SDS011;50118;53.232;8.252;2023-10-13T13:11:27;11.77;;;4.63;;
58242;SDS011;50118;53.232;8.252;2023-10-13T13:13:55;12.30;;;5.20;;
58242;SDS011;50118;53.232;8.252;2023-10-13T13:16:21;12.75;;;5.15;;
58242;SDS011;50118;53.232;8.252;2023-10-13T13:18:52;10.88;;;5.20;;
58242;SDS011;50118;53.232;8.252;2023-10-13T13:21:20;15.15;;;5.47;;
58242;SDS011;50118;53.232;8.252;2023-10-13T13:23:49;13.43;;;5.13;;
58242;SDS011;50118;53.232;8.252;2023-10-13T13:26:16;14.63;;;5.07;;
58242;SDS011;50118;53.232;8.252;2023-10-13T13:28:45;12.90;;;6.13;;
58242;SDS011;50118;53.232;8.252;2023-10-13T13:31:17;15.13;;;5.47;;
58242;SDS011;50118;53.232;8.252;2023-10-13T13:33:43;12.52;;;5.80;;
58242;SDS011;50118;53.232;8.252;2023-10-13T13:36:09;11.13;;;5.30;;
58242;SDS011;50118;53.232;8.252;2023-10-13T13:38:40;12.50;;;5.00;;
58242;SDS011;50118;53.232;8.252;2023-10-13T13:41:19;14.65;;;5.10;;
58242;SDS011;50118;53.232;8.252;2023-10-13T13:43:48;11.15;;;5.40;;
58242;SDS011;50118;53.232;8.252;2023-10-13T13:46:20;13.45;;;5.10;;
58242;SDS011;50118;53.232;8.252;2023-10-13T13:48:50;11.65;;;5.20;;
58242;SDS011;50118;53.232;8.252;2023-10-13T13:51:16;12.88;;;5.40;;
58242;SDS011;50118;53.232;8.252;2023-10-13T13:53:51;12.93;;;5.60;;
58242;SDS011;50118;53.232;8.252;2023-10-13T13:56:18;9.50;;;5.20;;
58242;SDS011;50118;53.232;8.252;2023-10-13T13:58:49;11.13;;;5.07;;
58242;SDS011;50118;53.232;8.252;2023-10-13T14:01:15;16.75;;;5.32;;
58242;SDS011;50118;53.232;8.252;2023-10-13T14:03:44;11.82;;;5.43;;
58242;SDS011;50118;53.232;8.252;2023-10-13T14:06:12;16.50;;;5.68;;
58242;SDS011;50118;53.232;8.252;2023-10-13T14:08:43;13.10;;;5.30;;
58242;SDS011;50118;53.232;8.252;2023-10-13T14:11:09;11.40;;;6.05;;
58242;SDS011;50118;53.232;8.252;2023-10-13T14:13:39;13.60;;;5.07;;
58242;SDS011;50118;53.232;8.252;2023-10-13T14:16:26;13.38;;;5.45;;
58242;SDS011;50118;53.232;8.252;2023-10-13T14:18:51;13.10;;;6.03;;
58242;SDS011;50118;53.232;8.252;2023-10-13T14:21:17;14.02;;;5.65;;
58242;SDS011;50118;53.232;8.252;2023-10-13T14:23:44;12.60;;;5.90;;
58242;SDS011;50118;53.232;8.252;2023-10-13T14:26:16;13.27;;;5.43;;
58242;SDS011;50118;53.232;8.252;2023-10-13T14:28:51;15.82;;;5.70;;
58242;SDS011;50118;53.232;8.252;2023-10-13T14:31:28;13.95;;;5.63;;
58242;SDS011;50118;53.232;8.252;2023-10-13T14:33:54;10.98;;;5.50;;
58242;SDS011;50118;53.232;8.252;2023-10-13T14:36:19;9.57;;;5.18;;
58242;SDS011;50118;53.232;8.252;2023-10-13T14:38:46;12.57;;;5.38;;
58242;SDS011;50118;53.232;8.252;2023-10-13T14:41:15;13.60;;;5.68;;
58242;SDS011;50118;53.232;8.252;2023-10-13T14:43:42;10.65;;;4.93;;
58242;SDS011;50118;53.232;8.252;2023-10-13T14:46:12;11.27;;;5.57;;
58242;SDS011;50118;53.232;8.252;2023-10-13T14:48:41;12.38;;;6.00;;
58242;SDS011;50118;53.232;8.252;2023-10-13T14:51:10;12.82;;;5.47;;
58242;SDS011;50118;53.232;8.252;2023-10-13T14:53:38;11.60;;;5.47;;
58242;SDS011;50118;53.232;8.252;2023-10-13T14:56:11;12.60;;;5.20;;
58242;SDS011;50118;53.232;8.252;2023-10-13T14:58:40;12.88;;;5.30;;
58242;SDS011;50118;53.232;8.252;2023-10-13T15:01:13;12.10;;;5.47;;
58242;SDS011;50118;53.232;8.252;2023-10-13T15:03:46;13.82;;;5.40;;
58242;SDS011;50118;53.232;8.252;2023-10-13T15:06:16;13.90;;;5.30;;
58242;SDS011;50118;53.232;8.252;2023-10-13T15:08:48;13.82;;;5.80;;
58242;SDS011;50118;53.232;8.252;2023-10-13T15:11:14;10.18;;;5.70;;
58242;SDS011;50118;53.232;8.252;2023-10-13T15:13:43;13.10;;;5.97;;
58242;SDS011;50118;53.232;8.252;2023-10-13T15:16:12;11.77;;;5.45;;
58242;SDS011;50118;53.232;8.252;2023-10-13T15:18:47;12.23;;;5.50;;
58242;SDS011;50118;53.232;8.252;2023-10-13T15:21:20;13.20;;;5.68;;
58242;SDS011;50118;53.232;8.252;2023-10-13T15:23:59;11.88;;;5.95;;
58242;SDS011;50118;53.232;8.252;2023-10-13T15:26:29;13.40;;;5.70;;
58242;SDS011;50118;53.232;8.252;2023-10-13T15:28:55;11.20;;;5.80;;
58242;SDS011;50118;53.232;8.252;2023-10-13T15:31:22;12.10;;;5.82;;
58242;SDS011;50118;53.232;8.252;2023-10-13T15:33:52;13.93;;;5.95;;
58242;SDS011;50118;53.232;8.252;2023-10-13T15:36:23;15.50;;;5.55;;
58242;SDS011;50118;53.232;8.252;2023-10-13T15:38:51;11.35;;;5.78;;
58242;SDS011;50118;53.232;8.252;2023-10-13T15:41:21;11.82;;;6.05;;
58242;SDS011;50118;53.232;8.252;2023-10-13T15:43:47;10.98;;;5.55;;
58242;SDS011;50118;53.232;8.252;2023-10-13T15:46:20;13.07;;;6.38;;
58242;SDS011;50118;53.232;8.252;2023-10-13T15:49:00;14.63;;;6.55;;
58242;SDS011;50118;53.232;8.252;2023-10-13T15:51:37;13.85;;;6.30;;
58242;SDS011;50118;53.232;8.252;2023-10-13T15:54:03;13.20;;;6.18;;
58242;SDS011;50118;53.232;8.252;2023-10-13T15:56:29;12.15;;;5.93;;
58242;SDS011;50118;53.232;8.252;2023-10-13T15:58:58;12.85;;;6.57;;
58242;SDS011;50118;53.232;8.252;2023-10-13T16:01:27;12.68;;;6.40;;